الصفحة الرئيسية
METAR-TAF:

METAR-TAF

مطار :

الرباط, المغرب

مطار الرباط سلا

دائرة عرض: 34-03N, خط طول: 006-46W, ارتفاع: 84 متر

مراقبة الطقس الحالي

تاريخ ووقت الإصدار 15 دقيقة قبل الساعة 03:30UTC
ريح 6 عقدة من الجنوب/الجنوب الغربي
درجة الحرارة 12°درجة مئوية
الرطوبة 88%
ضغط 1017 hPa
الرؤية 10 كم أو أكثر
غيوم متفرقة على ارتفاع 1600 قدم
غيوم متفرقة على ارتفاع 10000 قدم

METAR: GMME 190330Z 20006KT 9999 SCT016 SCT100 12/10 Q1017 NOSIG

زمن: 03:45 (03:45 UTC)

توقعات

تاريخ ووقت الإصدار 4ساعات و 45 دقيقة قبل الساعة 23:00UTC
التوقعات صالحة من19 الساعة 00 UTC إلى 20 الساعة 06 UTC
ريح 5 عقدة من الجنوب/الجنوب الشرقي
الرؤية: 6000 متر
غيوم متفرقة على ارتفاع 1300 قدم
غيوم متفرقة على ارتفاع 2000 قدم
غيوم مفككة على ارتفاع 9000 قدم
أصبح
من 19 الساعة 06 UTC إلى 19 الساعة 10 UTC
ريح 10 عقدة من الغرب/الجنوب الغربي
مؤقت
من 19 الساعة 12 UTC إلى 19 الساعة 18 UTC
ريح 2 عقدةمن اتجاهات متغيرة
الرؤية 10 كم أو أكثر

TAF: GMME 182300Z 1900/2006 16005KT 6000 SCT013 SCT020 BKN090 BECMG 1906/1910 24010KT TEMPO 1912/1918 VRB02KT 9999

أرصاد الطقس والتوقعات من أكثر من 4000 مطار (تقارير الطقس للمطار METAR والتنبؤ بالطقس بالمطارTAF).

المحطات المتاحة هي النقط الصفراء والحمراء على الخريطة.

حرك المؤشر فوق النقطة لمعرفة اسم المحطة.

ثم انقر لمعرفة أرصاد وتوقعات الطقس.

لتغيير الخارطة: اضغط على الأزرار الخضراء مع رمز الصليب الأسود للتكبير. على الزر الأخضر مع شرطة للتصغير، أو على الأسهم الخضراء للخرائط المجاورة.


METAR-TAF: